createdAt,value
2018-02-15T00:00:41.982Z,11.90
2018-02-15T00:03:09.598Z,12.83
2018-02-15T00:05:37.189Z,12.00
2018-02-15T00:08:04.759Z,11.40
2018-02-15T00:10:32.447Z,10.70
2018-02-15T00:13:00.072Z,7.90
2018-02-15T00:15:27.640Z,9.73
2018-02-15T00:17:55.210Z,11.50
2018-02-15T00:20:22.835Z,10.30
2018-02-15T00:22:50.439Z,8.60
2018-02-15T00:25:18.065Z,8.53
2018-02-15T00:27:45.630Z,11.10
2018-02-15T00:30:13.255Z,10.43
2018-02-15T00:32:40.800Z,16.83
2018-02-15T00:35:08.466Z,10.20
2018-02-15T00:37:36.195Z,11.27
2018-02-15T00:40:03.757Z,12.50
2018-02-15T00:42:31.326Z,10.17
2018-02-15T00:44:58.882Z,10.70
2018-02-15T00:47:26.502Z,10.87
2018-02-15T00:49:54.067Z,11.50
2018-02-15T00:52:21.634Z,11.47
2018-02-15T00:54:49.197Z,9.40
2018-02-15T00:57:16.814Z,9.60
2018-02-15T00:59:44.490Z,9.80
2018-02-15T01:02:12.060Z,10.80
2018-02-15T01:04:39.679Z,10.33
2018-02-15T01:07:07.312Z,10.80
2018-02-15T01:09:34.899Z,9.63
2018-02-15T01:12:02.546Z,9.63
2018-02-15T01:14:30.088Z,7.83
2018-02-15T01:16:57.697Z,7.50
2018-02-15T01:19:25.309Z,8.57
2018-02-15T01:21:52.941Z,8.53
2018-02-15T01:24:20.506Z,8.23
2018-02-15T01:26:48.122Z,7.40
2018-02-15T01:29:15.687Z,8.10
2018-02-15T01:31:43.242Z,8.83
2018-02-15T01:34:10.862Z,7.33
2018-02-15T01:36:38.422Z,7.50
2018-02-15T01:39:05.996Z,7.90
2018-02-15T01:41:33.585Z,9.20
2018-02-15T01:44:01.142Z,7.73
2018-02-15T01:46:28.767Z,6.53
2018-02-15T01:48:56.343Z,7.03
2018-02-15T01:51:23.936Z,8.40
2018-02-15T01:53:51.483Z,7.00
2018-02-15T01:56:19.099Z,7.07
2018-02-15T01:58:46.730Z,7.27
2018-02-15T02:01:14.290Z,7.87
2018-02-15T02:03:41.909Z,6.77
2018-02-15T02:06:09.469Z,8.60
2018-02-15T02:08:37.096Z,7.30
2018-02-15T02:11:04.655Z,7.70
2018-02-15T02:13:32.209Z,7.33
2018-02-15T02:15:59.773Z,7.50
2018-02-15T02:18:27.421Z,7.50
2018-02-15T02:20:54.987Z,8.00
2018-02-15T02:23:22.546Z,8.20
2018-02-15T02:25:50.158Z,8.23
2018-02-15T02:28:17.728Z,8.20
2018-02-15T02:30:45.295Z,6.90
2018-02-15T02:33:12.922Z,7.43
2018-02-15T02:35:40.486Z,7.43
2018-02-15T02:38:08.053Z,8.53
2018-02-15T02:40:35.622Z,10.17
2018-02-15T02:43:03.248Z,8.83
2018-02-15T02:45:30.819Z,8.23
2018-02-15T02:47:58.387Z,8.10
2018-02-15T02:50:26.036Z,7.90
2018-02-15T02:52:53.667Z,9.70
2018-02-15T02:55:21.230Z,5.87
2018-02-15T02:57:48.793Z,8.17
2018-02-15T03:00:16.428Z,8.30
2018-02-15T03:02:44.058Z,7.80
2018-02-15T03:05:11.639Z,8.43
2018-02-15T03:07:39.282Z,9.03
2018-02-15T03:10:06.915Z,9.13
2018-02-15T03:12:34.495Z,9.33
2018-02-15T03:15:02.084Z,9.67
2018-02-15T03:17:29.919Z,11.63
2018-02-15T03:19:57.482Z,10.43
2018-02-15T03:22:25.851Z,10.47
2018-02-15T03:24:53.437Z,11.97
2018-02-15T03:27:21.067Z,12.23
2018-02-15T03:29:48.687Z,12.17
2018-02-15T03:32:16.310Z,11.27
2018-02-15T03:34:43.991Z,10.40
2018-02-15T03:37:11.563Z,11.80
2018-02-15T03:39:39.126Z,12.53
2018-02-15T03:42:06.773Z,12.83
2018-02-15T03:44:34.398Z,11.53
2018-02-15T03:47:02.031Z,12.20
2018-02-15T03:49:29.654Z,11.37
2018-02-15T03:51:57.324Z,12.27
2018-02-15T03:54:24.894Z,12.37
2018-02-15T03:56:52.458Z,12.37
2018-02-15T03:59:20.038Z,11.03
2018-02-15T04:01:47.671Z,11.37
2018-02-15T04:04:15.322Z,11.90
2018-02-15T04:06:42.892Z,10.70
2018-02-15T04:09:10.516Z,11.63
2018-02-15T04:11:38.086Z,13.03
2018-02-15T04:14:05.650Z,12.03
2018-02-15T04:16:33.219Z,13.80
2018-02-15T04:19:00.849Z,15.27
2018-02-15T04:21:28.424Z,14.53
2018-02-15T04:23:56.074Z,15.20
2018-02-15T04:26:23.756Z,14.93
2018-02-15T04:28:51.324Z,15.43
2018-02-15T04:31:18.912Z,47.27
2018-02-15T04:33:46.546Z,34.47
2018-02-15T04:36:14.187Z,25.20
2018-02-15T04:38:41.764Z,26.40
2018-02-15T04:41:09.386Z,20.30
2018-02-15T04:43:37.003Z,22.97
2018-02-15T04:46:04.569Z,23.47
2018-02-15T04:48:32.133Z,22.17
2018-02-15T04:50:59.719Z,27.10
2018-02-15T04:53:27.297Z,31.07
2018-02-15T04:55:54.878Z,27.10
2018-02-15T04:58:22.464Z,23.80
2018-02-15T05:00:50.107Z,21.13
2018-02-15T05:03:17.688Z,25.67
2018-02-15T05:05:45.323Z,28.57
2018-02-15T05:08:12.911Z,25.20
2018-02-15T05:10:40.556Z,20.37
2018-02-15T05:13:08.137Z,20.73
2018-02-15T05:15:35.689Z,22.70
2018-02-15T05:18:03.328Z,22.40
2018-02-15T05:20:30.905Z,28.77
2018-02-15T05:22:58.534Z,25.30
2018-02-15T05:25:26.133Z,43.00
2018-02-15T05:27:53.694Z,29.37
2018-02-15T05:30:21.276Z,26.80
2018-02-15T05:32:48.823Z,28.27
2018-02-15T05:35:16.445Z,29.80
2018-02-15T05:37:44.071Z,45.50
2018-02-15T05:40:11.641Z,43.10
2018-02-15T05:42:39.227Z,32.50
2018-02-15T05:45:06.855Z,38.10
2018-02-15T05:47:34.442Z,143.83
2018-02-15T05:50:02.010Z,85.30
2018-02-15T05:52:29.634Z,39.40
2018-02-15T05:54:57.206Z,46.77
2018-02-15T05:57:24.778Z,26.17
2018-02-15T05:59:52.406Z,24.70
2018-02-15T06:02:19.966Z,44.80
2018-02-15T06:04:47.534Z,26.63
2018-02-15T06:07:15.104Z,24.77
2018-02-15T06:09:42.722Z,47.33
2018-02-15T06:12:10.289Z,28.13
2018-02-15T06:14:37.887Z,20.47
2018-02-15T06:17:05.460Z,17.77
2018-02-15T06:19:33.029Z,20.57
2018-02-15T06:22:00.604Z,16.57
2018-02-15T06:24:28.198Z,16.70
2018-02-15T06:26:55.824Z,15.37
2018-02-15T06:29:23.395Z,75.00
2018-02-15T06:31:51.023Z,38.27
2018-02-15T06:34:18.598Z,23.67
2018-02-15T06:36:46.202Z,40.80
2018-02-15T06:39:13.789Z,22.70
2018-02-15T06:41:41.361Z,20.73
2018-02-15T06:44:08.983Z,18.10
2018-02-15T06:46:36.607Z,16.50
2018-02-15T06:49:04.183Z,29.60
2018-02-15T06:51:31.753Z,21.40
2018-02-15T06:53:59.379Z,17.80
2018-02-15T06:56:26.964Z,17.57
2018-02-15T06:58:54.526Z,16.10
2018-02-15T07:01:22.203Z,17.20
2018-02-15T07:03:49.832Z,23.90
2018-02-15T07:06:17.390Z,15.50
2018-02-15T07:08:44.965Z,16.40
2018-02-15T07:11:12.557Z,19.03
2018-02-15T07:13:40.204Z,15.03
2018-02-15T07:16:07.770Z,17.73
2018-02-15T07:18:35.392Z,18.57
2018-02-15T07:21:03.027Z,17.00
2018-02-15T07:23:30.594Z,17.17
2018-02-15T07:25:58.156Z,16.00
2018-02-15T07:28:25.718Z,16.00
2018-02-15T07:30:53.347Z,18.57
2018-02-15T07:33:20.922Z,15.87
2018-02-15T07:35:48.604Z,15.10
2018-02-15T07:38:16.182Z,13.03
2018-02-15T07:40:43.822Z,12.60
2018-02-15T07:43:11.393Z,14.80
2018-02-15T07:45:38.959Z,14.67
2018-02-15T07:48:06.574Z,10.83
2018-02-15T07:50:34.235Z,11.93
2018-02-15T07:53:01.908Z,17.90
2018-02-15T07:55:29.575Z,13.77
2018-02-15T07:57:57.248Z,14.43
2018-02-15T08:00:24.831Z,12.57
2018-02-15T08:02:52.458Z,13.57
2018-02-15T08:05:20.099Z,12.50
2018-02-15T08:07:47.669Z,10.83
2018-02-15T08:10:15.294Z,15.07
2018-02-15T08:12:42.918Z,16.20
2018-02-15T08:15:10.491Z,12.57
2018-02-15T08:17:38.090Z,12.00
2018-02-15T08:20:05.663Z,13.50
2018-02-15T08:22:33.252Z,11.77
2018-02-15T08:25:00.832Z,13.17
2018-02-15T08:27:28.469Z,12.27
2018-02-15T08:29:56.095Z,9.80
2018-02-15T08:32:23.701Z,13.83
2018-02-15T08:34:51.291Z,13.43
2018-02-15T08:37:18.853Z,12.80
2018-02-15T08:39:46.435Z,12.33
2018-02-15T08:42:14.006Z,10.50
2018-02-15T08:44:41.722Z,12.23
2018-02-15T08:47:09.288Z,10.20
2018-02-15T08:49:36.868Z,10.53
2018-02-15T08:52:04.444Z,8.57
2018-02-15T08:54:32.001Z,9.13
2018-02-15T08:56:59.573Z,12.10
2018-02-15T08:59:27.197Z,8.77
2018-02-15T09:01:54.883Z,8.67
2018-02-15T09:04:22.507Z,9.60
2018-02-15T09:06:50.072Z,9.40
2018-02-15T09:09:17.653Z,10.40
2018-02-15T09:11:45.269Z,9.67
2018-02-15T09:14:12.921Z,10.67
2018-02-15T09:16:40.546Z,9.67
2018-02-15T09:19:08.176Z,10.37
2018-02-15T09:21:35.803Z,10.50
2018-02-15T09:24:03.437Z,8.90
2018-02-15T09:26:31.069Z,9.93
2018-02-15T09:28:58.693Z,9.90
2018-02-15T09:31:26.334Z,11.03
2018-02-15T09:33:53.897Z,13.27
2018-02-15T09:36:21.522Z,10.67
2018-02-15T09:38:49.094Z,9.27
2018-02-15T09:41:16.722Z,9.10
2018-02-15T09:43:44.304Z,9.10
2018-02-15T09:46:11.865Z,9.57
2018-02-15T09:48:39.474Z,9.73
2018-02-15T09:51:07.037Z,9.67
2018-02-15T09:53:34.602Z,11.73
2018-02-15T09:56:02.214Z,10.47
2018-02-15T09:58:29.782Z,10.90
2018-02-15T10:00:57.358Z,8.20
2018-02-15T10:03:24.986Z,10.70
2018-02-15T10:05:52.549Z,8.80
2018-02-15T10:08:20.156Z,9.60
2018-02-15T10:10:47.783Z,10.90
2018-02-15T10:13:15.422Z,10.33
2018-02-15T10:15:42.986Z,11.10
2018-02-15T10:18:10.685Z,12.57
2018-02-15T10:20:38.308Z,8.47
2018-02-15T10:23:05.858Z,10.60
2018-02-15T10:25:33.490Z,10.60
2018-02-15T10:28:01.122Z,12.33
2018-02-15T10:30:28.816Z,10.40
2018-02-15T10:32:56.386Z,10.30
2018-02-15T10:35:23.961Z,10.17
2018-02-15T10:37:51.539Z,8.37
2018-02-15T10:40:19.103Z,8.50
2018-02-15T10:42:46.728Z,12.03
2018-02-15T10:45:14.337Z,14.30
2018-02-15T10:47:41.908Z,10.90
2018-02-15T10:50:09.490Z,7.47
2018-02-15T10:52:37.098Z,12.30
2018-02-15T10:55:04.724Z,14.53
2018-02-15T10:57:32.350Z,11.80
2018-02-15T10:59:59.926Z,10.90
2018-02-15T11:02:27.541Z,9.70
2018-02-15T11:05:00.618Z,10.00
2018-02-15T11:07:34.950Z,8.40
2018-02-15T11:10:02.538Z,8.80
2018-02-15T11:12:30.235Z,10.20
2018-02-15T11:14:57.798Z,11.30
2018-02-15T11:17:25.363Z,9.20
2018-02-15T11:19:52.945Z,13.47
2018-02-15T11:22:20.546Z,14.10
2018-02-15T11:24:48.182Z,11.20
2018-02-15T11:27:15.797Z,11.60
2018-02-15T11:29:43.420Z,11.63
2018-02-15T11:32:11.055Z,10.90
2018-02-15T11:34:38.640Z,12.87
2018-02-15T11:37:06.226Z,10.63
2018-02-15T11:39:33.859Z,12.50
2018-02-15T11:42:01.441Z,12.47
2018-02-15T11:44:29.067Z,9.50
2018-02-15T11:46:56.707Z,9.93
2018-02-15T11:49:24.292Z,10.47
2018-02-15T11:51:51.867Z,7.70
2018-02-15T11:54:19.503Z,8.37
2018-02-15T11:56:47.076Z,10.57
2018-02-15T11:59:14.724Z,11.30
2018-02-15T12:01:42.300Z,12.47
2018-02-15T12:04:09.933Z,15.87
2018-02-15T12:06:37.505Z,10.00
2018-02-15T12:09:05.188Z,10.17
2018-02-15T12:11:32.746Z,11.27
2018-02-15T12:14:00.311Z,13.50
2018-02-15T12:16:27.945Z,12.33
2018-02-15T12:18:55.574Z,10.00
2018-02-15T12:21:23.270Z,11.43
2018-02-15T12:23:50.903Z,12.20
2018-02-15T12:26:18.525Z,9.87
2018-02-15T12:28:46.173Z,11.10
2018-02-15T12:31:13.747Z,10.90
2018-02-15T12:33:41.323Z,9.70
2018-02-15T12:36:08.951Z,7.83
2018-02-15T12:38:36.576Z,11.60
2018-02-15T12:41:04.124Z,7.47
2018-02-15T12:43:31.674Z,10.63
2018-02-15T12:45:59.307Z,7.93
2018-02-15T12:48:26.934Z,9.50
2018-02-15T12:50:54.505Z,11.53
2018-02-15T12:53:22.122Z,16.63
2018-02-15T12:55:49.754Z,15.73
2018-02-15T12:58:17.389Z,15.67
2018-02-15T13:00:44.949Z,15.37
2018-02-15T13:03:12.524Z,11.30
2018-02-15T13:05:40.158Z,15.50
2018-02-15T13:08:07.795Z,12.93
2018-02-15T13:10:35.366Z,12.07
2018-02-15T13:13:14.542Z,10.73
2018-02-15T13:15:53.760Z,9.80
2018-02-15T13:18:21.349Z,41.90
2018-02-15T13:20:48.917Z,13.13
2018-02-15T13:23:16.599Z,12.60
2018-02-15T13:25:44.162Z,12.90
2018-02-15T13:31:15.892Z,17.30
2018-02-15T13:33:43.512Z,17.53
2018-02-15T13:36:11.073Z,20.00
2018-02-15T13:38:38.637Z,13.30
2018-02-15T13:41:06.265Z,15.57
2018-02-15T13:43:33.835Z,13.30
2018-02-15T13:46:01.473Z,12.27
2018-02-15T13:48:29.052Z,17.03
2018-02-15T13:50:56.749Z,19.17
2018-02-15T13:53:24.314Z,16.10
2018-02-15T13:55:51.882Z,16.87
2018-02-15T13:58:19.543Z,14.50
2018-02-15T14:00:47.105Z,13.33
2018-02-15T14:03:14.749Z,18.00
2018-02-15T14:05:42.393Z,13.57
2018-02-15T14:08:10.087Z,15.90
2018-02-15T14:10:37.655Z,12.97
2018-02-15T14:13:05.232Z,14.80
2018-02-15T14:15:32.817Z,17.20
2018-02-15T14:18:00.390Z,18.13
2018-02-15T14:20:27.976Z,21.37
2018-02-15T14:22:55.549Z,23.10
2018-02-15T14:25:23.170Z,17.30
2018-02-15T14:27:50.749Z,19.00
2018-02-15T14:30:18.378Z,16.87
2018-02-15T14:32:45.952Z,19.90
2018-02-15T14:35:13.570Z,25.07
2018-02-15T14:37:41.144Z,20.53
2018-02-15T14:40:08.765Z,25.87
2018-02-15T14:42:36.391Z,21.53
2018-02-15T14:45:04.033Z,21.47
2018-02-15T14:47:31.669Z,21.07
2018-02-15T14:49:59.306Z,23.50
2018-02-15T14:52:26.874Z,19.73
2018-02-15T14:54:54.523Z,17.57
2018-02-15T14:57:22.155Z,21.50
2018-02-15T14:59:49.779Z,21.10
2018-02-15T15:02:17.350Z,21.97
2018-02-15T15:04:44.918Z,25.83
2018-02-15T15:07:12.554Z,27.10
2018-02-15T15:09:40.197Z,28.83
2018-02-15T15:12:07.846Z,29.20
2018-02-15T15:14:35.427Z,35.13
2018-02-15T15:17:03.054Z,26.03
2018-02-15T15:19:30.623Z,23.60
2018-02-15T15:21:58.199Z,22.50
2018-02-15T15:24:25.783Z,27.17
2018-02-15T15:26:53.358Z,27.40
2018-02-15T15:29:20.996Z,25.67
2018-02-15T15:31:48.582Z,27.53
2018-02-15T15:34:16.206Z,24.33
2018-02-15T15:36:43.851Z,27.30
2018-02-15T15:39:11.491Z,28.87
2018-02-15T15:41:39.123Z,32.80
2018-02-15T15:44:06.779Z,32.90
2018-02-15T15:46:34.423Z,37.87
2018-02-15T15:49:02.005Z,46.70
2018-02-15T15:51:29.665Z,43.47
2018-02-15T15:53:57.287Z,40.23
2018-02-15T15:56:24.946Z,40.43
2018-02-15T15:58:52.521Z,45.87
2018-02-15T16:01:20.090Z,36.77
2018-02-15T16:03:47.674Z,40.40
2018-02-15T16:06:15.245Z,36.93
2018-02-15T16:08:42.908Z,42.50
2018-02-15T16:11:10.505Z,52.80
2018-02-15T16:13:38.147Z,47.23
2018-02-15T16:16:05.730Z,42.87
2018-02-15T16:18:33.311Z,46.87
2018-02-15T16:21:00.982Z,44.40
2018-02-15T16:23:28.558Z,47.33
2018-02-15T16:25:56.305Z,48.40
2018-02-15T16:28:23.886Z,43.90
2018-02-15T16:30:52.363Z,45.00
2018-02-15T16:33:19.962Z,38.73
2018-02-15T16:35:47.544Z,39.50
2018-02-15T16:38:15.127Z,42.23
2018-02-15T16:40:42.772Z,45.93
2018-02-15T16:43:10.465Z,48.93
2018-02-15T16:45:38.116Z,51.23
2018-02-15T16:48:05.679Z,59.00
2018-02-15T16:50:33.337Z,61.80
2018-02-15T16:53:00.895Z,62.83
2018-02-15T16:55:28.474Z,68.27
2018-02-15T16:57:56.119Z,75.73
2018-02-15T17:00:23.773Z,58.00
2018-02-15T17:02:51.414Z,62.10
2018-02-15T17:05:19.083Z,62.30
2018-02-15T17:07:47.486Z,70.10
2018-02-15T17:10:15.067Z,67.30
2018-02-15T17:12:43.550Z,66.70
2018-02-15T17:15:11.129Z,67.73
2018-02-15T17:17:38.765Z,74.40
2018-02-15T17:20:06.418Z,70.20
2018-02-15T17:22:34.062Z,69.07
2018-02-15T17:25:01.652Z,97.70
2018-02-15T17:27:29.234Z,114.47
2018-02-15T17:29:56.828Z,106.37
2018-02-15T17:32:24.411Z,106.33
2018-02-15T17:34:52.051Z,104.87
2018-02-15T17:37:19.627Z,91.17
2018-02-15T17:39:47.281Z,83.97
2018-02-15T17:42:14.878Z,80.63
2018-02-15T17:44:42.466Z,76.17
2018-02-15T17:47:10.139Z,69.30
2018-02-15T17:49:37.730Z,67.23
2018-02-15T17:52:05.366Z,61.20
2018-02-15T17:54:33.038Z,55.30
2018-02-15T17:57:00.626Z,75.67
2018-02-15T17:59:28.248Z,85.90
2018-02-15T18:01:55.847Z,89.93
2018-02-15T18:04:23.469Z,84.13
2018-02-15T18:06:51.056Z,63.20
2018-02-15T18:09:18.730Z,64.80
2018-02-15T18:11:46.633Z,54.43
2018-02-15T18:14:14.242Z,52.50
2018-02-15T18:16:41.906Z,52.53
2018-02-15T18:19:09.507Z,50.57
2018-02-15T18:21:37.121Z,37.20
2018-02-15T18:24:04.726Z,34.47
2018-02-15T18:26:32.449Z,39.40
2018-02-15T18:29:00.327Z,45.30
2018-02-15T18:31:27.991Z,47.07
2018-02-15T18:33:55.638Z,50.67
2018-02-15T18:36:23.222Z,51.77
2018-02-15T18:38:50.935Z,57.00
2018-02-15T18:41:18.586Z,58.77
2018-02-15T18:43:46.223Z,65.43
2018-02-15T18:46:13.806Z,67.70
2018-02-15T18:48:41.466Z,67.00
2018-02-15T18:51:09.107Z,77.03
2018-02-15T18:53:36.683Z,72.10
2018-02-15T18:56:04.336Z,76.87
2018-02-15T18:58:31.979Z,80.20
2018-02-15T19:00:59.639Z,82.60
2018-02-15T19:03:27.320Z,73.50
2018-02-15T19:05:54.893Z,69.53
2018-02-15T19:08:22.475Z,72.07
2018-02-15T19:10:50.054Z,56.33
2018-02-15T19:13:17.649Z,63.43
2018-02-15T19:15:45.286Z,59.60
2018-02-15T19:18:12.934Z,56.47
2018-02-15T19:20:40.506Z,56.90
2018-02-15T19:23:08.100Z,58.33
2018-02-15T19:25:35.748Z,57.83
2018-02-15T19:28:03.443Z,65.27
2018-02-15T19:30:31.020Z,51.57
2018-02-15T19:32:58.599Z,48.83
2018-02-15T19:35:26.253Z,51.07
2018-02-15T19:37:53.905Z,51.83
2018-02-15T19:40:21.611Z,55.63
2018-02-15T19:45:30.946Z,69.27
2018-02-15T19:47:58.527Z,68.50
2018-02-15T19:50:26.106Z,71.30
2018-02-15T19:52:53.746Z,76.20
2018-02-15T19:55:21.388Z,76.57
2018-02-15T19:57:49.026Z,74.33
2018-02-15T20:00:16.599Z,80.10
2018-02-15T20:02:44.178Z,70.97
2018-02-15T20:05:11.783Z,67.03
2018-02-15T20:07:39.422Z,70.30
2018-02-15T20:10:07.065Z,55.10
2018-02-15T20:12:34.671Z,49.70
2018-02-15T20:15:02.661Z,47.67
2018-02-15T20:17:30.246Z,47.97
2018-02-15T20:20:03.238Z,52.10
2018-02-15T20:22:30.874Z,48.67
2018-02-15T20:24:58.518Z,52.40
2018-02-15T20:27:31.810Z,55.20
2018-02-15T20:29:59.387Z,55.43
2018-02-15T20:32:27.050Z,56.07
2018-02-15T20:34:54.690Z,52.43
2018-02-15T20:37:22.302Z,49.87
2018-02-15T20:39:55.461Z,50.83
2018-02-15T20:42:23.068Z,54.00
2018-02-15T20:44:50.772Z,49.93
2018-02-15T20:47:18.354Z,46.53
2018-02-15T20:49:51.558Z,44.53
2018-02-15T20:52:24.627Z,41.60
2018-02-15T20:54:57.708Z,32.47
2018-02-15T20:57:25.272Z,32.00
2018-02-15T20:59:52.867Z,33.03
2018-02-15T21:02:20.438Z,38.27
2018-02-15T21:04:48.038Z,38.33
2018-02-15T21:07:15.681Z,32.83
2018-02-15T21:09:43.253Z,34.17
2018-02-15T21:12:10.896Z,37.27
2018-02-15T21:14:38.471Z,40.13
2018-02-15T21:17:06.078Z,35.40
2018-02-15T21:19:33.705Z,36.07
2018-02-15T21:22:01.340Z,35.60
2018-02-15T21:24:30.039Z,30.60
2018-02-15T21:26:57.624Z,26.80
2018-02-15T21:29:25.175Z,27.57
2018-02-15T21:31:52.856Z,24.60
2018-02-15T21:34:20.487Z,28.17
2018-02-15T21:36:48.063Z,26.37
2018-02-15T21:39:15.705Z,25.67
2018-02-15T21:41:43.301Z,26.67
2018-02-15T21:44:10.952Z,27.20
2018-02-15T21:46:38.592Z,26.63
2018-02-15T21:49:06.164Z,24.83
2018-02-15T21:51:33.746Z,25.10
2018-02-15T21:54:01.322Z,25.40
2018-02-15T21:56:28.964Z,23.67
2018-02-15T21:58:56.542Z,25.27
2018-02-15T22:01:24.122Z,27.97
2018-02-15T22:03:51.788Z,28.73
2018-02-15T22:06:19.430Z,31.97
2018-02-15T22:08:47.062Z,32.40
2018-02-15T22:11:14.637Z,35.13
2018-02-15T22:13:42.214Z,36.70
2018-02-15T22:16:09.809Z,32.90
2018-02-15T22:18:37.425Z,26.00
2018-02-15T22:21:05.050Z,26.43
2018-02-15T22:23:32.722Z,26.63
2018-02-15T22:26:00.290Z,25.73
2018-02-15T22:28:27.865Z,26.67
2018-02-15T22:30:55.506Z,24.10
2018-02-15T22:33:23.139Z,26.40
2018-02-15T22:35:50.717Z,28.30
2018-02-15T22:38:18.328Z,24.20
2018-02-15T22:40:45.908Z,23.17
2018-02-15T22:43:13.469Z,23.63
2018-02-15T22:45:41.178Z,25.13
2018-02-15T22:48:08.816Z,22.20
2018-02-15T22:50:36.443Z,25.20
2018-02-15T22:53:04.028Z,23.47
2018-02-15T22:55:31.665Z,22.37
2018-02-15T22:57:59.387Z,23.57
2018-02-15T23:00:27.063Z,21.17
2018-02-15T23:02:54.727Z,21.30
2018-02-15T23:05:22.331Z,22.10
2018-02-15T23:07:49.910Z,22.90
2018-02-15T23:10:17.530Z,21.07
2018-02-15T23:12:45.103Z,22.57
2018-02-15T23:15:12.731Z,21.67
2018-02-15T23:17:40.690Z,20.47
2018-02-15T23:20:08.281Z,23.43
2018-02-15T23:22:35.905Z,21.97
2018-02-15T23:25:03.478Z,24.13
2018-02-15T23:27:31.046Z,25.97
2018-02-15T23:29:58.691Z,25.83
2018-02-15T23:32:26.253Z,25.97
2018-02-15T23:34:53.898Z,21.40
2018-02-15T23:37:21.466Z,23.30
2018-02-15T23:39:49.058Z,26.37
2018-02-15T23:42:16.706Z,25.70
2018-02-15T23:44:44.299Z,25.17
2018-02-15T23:47:11.982Z,24.80
2018-02-15T23:49:39.550Z,25.23
2018-02-15T23:52:07.123Z,23.03
2018-02-15T23:54:34.706Z,22.40
2018-02-15T23:57:02.335Z,22.60
2018-02-15T23:59:29.969Z,25.23
